createdAt,value
2017-06-20T00:00:04.983Z,5.50
2017-06-20T00:02:32.609Z,5.47
2017-06-20T00:05:00.131Z,5.40
2017-06-20T00:07:27.652Z,5.23
2017-06-20T00:09:55.224Z,6.17
2017-06-20T00:12:22.759Z,5.97
2017-06-20T00:14:50.279Z,6.00
2017-06-20T00:17:17.853Z,6.27
2017-06-20T00:19:45.436Z,6.50
2017-06-20T00:22:12.953Z,6.30
2017-06-20T00:24:40.524Z,6.57
2017-06-20T00:27:08.112Z,6.33
2017-06-20T00:29:35.632Z,6.67
2017-06-20T00:32:03.228Z,7.63
2017-06-20T00:34:30.765Z,7.00
2017-06-20T00:36:59.091Z,7.03
2017-06-20T00:39:27.434Z,7.23
2017-06-20T00:41:54.995Z,7.07
2017-06-20T00:44:22.521Z,6.70
2017-06-20T00:46:50.095Z,7.17
2017-06-20T00:49:17.652Z,7.40
2017-06-20T00:51:45.236Z,6.77
2017-06-20T00:54:12.820Z,7.43
2017-06-20T00:56:40.387Z,7.13
2017-06-20T00:59:07.897Z,7.97
2017-06-20T01:01:35.477Z,8.37
2017-06-20T01:04:03.019Z,7.73
2017-06-20T01:06:30.554Z,7.67
2017-06-20T01:08:58.133Z,8.10
2017-06-20T01:11:25.683Z,7.83
2017-06-20T01:13:53.204Z,8.00
2017-06-20T01:16:20.816Z,7.87
2017-06-20T01:18:48.370Z,7.63
2017-06-20T01:21:15.917Z,8.17
2017-06-20T01:23:43.515Z,7.50
2017-06-20T01:26:11.799Z,7.67
2017-06-20T01:28:39.315Z,8.07
2017-06-20T01:31:06.915Z,9.07
2017-06-20T01:33:34.423Z,7.73
2017-06-20T01:36:01.962Z,8.17
2017-06-20T01:38:29.541Z,8.10
2017-06-20T01:40:57.118Z,8.40
2017-06-20T01:43:24.667Z,8.17
2017-06-20T01:45:52.290Z,8.53
2017-06-20T01:48:19.820Z,8.20
2017-06-20T01:50:47.348Z,8.40
2017-06-20T01:53:14.955Z,7.83
2017-06-20T01:55:42.472Z,8.07
2017-06-20T01:58:10.873Z,8.97
2017-06-20T02:00:38.470Z,9.57
2017-06-20T02:03:05.985Z,8.13
2017-06-20T02:05:33.548Z,8.43
2017-06-20T02:08:01.105Z,8.40
2017-06-20T02:10:29.360Z,8.30
2017-06-20T02:12:56.880Z,8.40
2017-06-20T02:15:24.501Z,8.50
2017-06-20T02:17:52.072Z,8.43
2017-06-20T02:20:19.588Z,7.77
2017-06-20T02:22:48.756Z,9.00
2017-06-20T02:25:16.320Z,8.50
2017-06-20T02:27:43.891Z,8.63
2017-06-20T02:30:12.328Z,9.23
2017-06-20T02:32:39.841Z,8.53
2017-06-20T02:35:08.156Z,9.00
2017-06-20T02:37:35.786Z,8.70
2017-06-20T02:40:04.105Z,8.87
2017-06-20T02:42:31.641Z,8.63
2017-06-20T02:44:59.237Z,8.70
2017-06-20T02:47:26.770Z,9.40
2017-06-20T02:49:54.276Z,8.80
2017-06-20T02:52:21.863Z,8.37
2017-06-20T02:54:49.542Z,8.93
2017-06-20T02:57:17.093Z,8.33
2017-06-20T02:59:44.684Z,8.83
2017-06-20T03:02:12.220Z,8.80
2017-06-20T03:04:39.778Z,8.77
2017-06-20T03:07:07.349Z,8.63
2017-06-20T03:09:34.878Z,9.17
2017-06-20T03:12:02.412Z,7.97
2017-06-20T03:14:29.998Z,10.57
2017-06-20T03:16:57.570Z,9.83
2017-06-20T03:19:25.151Z,9.07
2017-06-20T03:21:52.705Z,8.63
2017-06-20T03:24:20.248Z,9.10
2017-06-20T03:26:47.790Z,10.37
2017-06-20T03:29:15.378Z,8.93
2017-06-20T03:31:42.936Z,9.50
2017-06-20T03:34:10.469Z,8.30
2017-06-20T03:36:38.137Z,8.43
2017-06-20T03:39:05.665Z,9.00
2017-06-20T03:41:33.204Z,8.93
2017-06-20T03:44:01.608Z,8.40
2017-06-20T03:46:29.176Z,8.87
2017-06-20T03:48:56.728Z,8.73
2017-06-20T03:51:24.287Z,8.90
2017-06-20T03:53:51.857Z,9.23
2017-06-20T03:56:19.404Z,8.57
2017-06-20T03:58:46.947Z,9.17
2017-06-20T04:01:14.508Z,9.07
2017-06-20T04:03:42.201Z,10.73
2017-06-20T04:06:09.764Z,9.00
2017-06-20T04:08:37.364Z,8.30
2017-06-20T04:11:05.651Z,9.80
2017-06-20T04:13:34.308Z,9.40
2017-06-20T04:16:01.931Z,9.70
2017-06-20T04:18:29.466Z,9.00
2017-06-20T04:21:02.808Z,9.10
2017-06-20T04:23:30.461Z,8.73
2017-06-20T04:25:57.971Z,9.27
2017-06-20T04:28:25.554Z,8.83
2017-06-20T04:30:53.085Z,9.20
2017-06-20T04:33:20.605Z,8.43
2017-06-20T04:35:48.196Z,9.33
2017-06-20T04:38:15.767Z,10.33
2017-06-20T04:40:43.314Z,9.57
2017-06-20T04:43:11.015Z,10.00
2017-06-20T04:45:38.542Z,8.70
2017-06-20T04:48:06.125Z,9.53
2017-06-20T04:50:33.705Z,8.30
2017-06-20T04:53:01.331Z,8.03
2017-06-20T04:55:28.931Z,9.10
2017-06-20T04:57:56.443Z,9.53
2017-06-20T05:00:24.080Z,8.20
2017-06-20T05:02:51.588Z,9.10
2017-06-20T05:05:19.972Z,8.00
2017-06-20T05:07:47.545Z,8.83
2017-06-20T05:10:15.119Z,8.77
2017-06-20T05:12:42.649Z,8.93
2017-06-20T05:15:10.243Z,8.27
2017-06-20T05:17:37.815Z,7.63
2017-06-20T05:20:06.091Z,8.57
2017-06-20T05:22:34.155Z,8.97
2017-06-20T05:25:01.674Z,8.97
2017-06-20T05:27:29.203Z,8.27
2017-06-20T05:29:56.760Z,7.93
2017-06-20T05:32:24.276Z,7.67
2017-06-20T05:34:52.928Z,8.37
2017-06-20T05:37:20.503Z,10.70
2017-06-20T05:39:48.841Z,7.93
2017-06-20T05:42:16.360Z,7.57
2017-06-20T05:44:43.940Z,8.70
2017-06-20T05:47:11.480Z,8.87
2017-06-20T05:49:39.008Z,8.67
2017-06-20T05:52:06.652Z,8.77
2017-06-20T05:54:34.199Z,8.00
2017-06-20T05:57:01.729Z,8.33
2017-06-20T05:59:29.298Z,7.77
2017-06-20T06:01:56.828Z,8.00
2017-06-20T06:04:24.338Z,7.40
2017-06-20T06:06:52.140Z,7.37
2017-06-20T06:09:19.652Z,8.50
2017-06-20T06:11:47.228Z,8.37
2017-06-20T06:14:14.801Z,8.03
2017-06-20T06:16:42.324Z,8.33
2017-06-20T06:19:09.873Z,8.23
2017-06-20T06:21:38.062Z,8.43
2017-06-20T06:24:05.603Z,7.60
2017-06-20T06:26:33.214Z,7.13
2017-06-20T06:29:00.791Z,8.43
2017-06-20T06:31:28.317Z,8.13
2017-06-20T06:33:55.872Z,7.50
2017-06-20T06:36:23.433Z,7.37
2017-06-20T06:38:50.960Z,7.30
2017-06-20T06:41:18.488Z,8.03
2017-06-20T06:43:46.070Z,7.97
2017-06-20T06:46:14.288Z,8.60
2017-06-20T06:48:42.701Z,7.60
2017-06-20T06:51:10.268Z,8.03
2017-06-20T06:53:37.856Z,7.87
2017-06-20T06:56:05.421Z,6.93
2017-06-20T06:58:32.954Z,7.70
2017-06-20T07:01:00.540Z,8.00
2017-06-20T07:03:28.116Z,8.67
2017-06-20T07:05:55.657Z,6.97
2017-06-20T07:08:23.953Z,7.03
2017-06-20T07:10:51.574Z,7.43
2017-06-20T07:13:19.133Z,7.87
2017-06-20T07:15:46.652Z,7.07
2017-06-20T07:18:14.294Z,6.63
2017-06-20T07:20:41.866Z,7.40
2017-06-20T07:23:09.463Z,10.93
2017-06-20T07:25:37.062Z,7.30
2017-06-20T07:28:04.617Z,7.40
2017-06-20T07:30:32.952Z,7.47
2017-06-20T07:33:00.569Z,7.20
2017-06-20T07:35:28.096Z,6.80
2017-06-20T07:37:55.682Z,7.47
2017-06-20T07:40:24.075Z,7.37
2017-06-20T07:42:51.597Z,7.50
2017-06-20T07:45:19.932Z,8.03
2017-06-20T07:47:47.521Z,6.60
2017-06-20T07:50:15.056Z,6.20
2017-06-20T07:52:42.644Z,6.97
2017-06-20T07:55:10.204Z,6.93
2017-06-20T07:57:37.731Z,8.17
2017-06-20T08:00:05.288Z,6.47
2017-06-20T08:02:32.937Z,6.77
2017-06-20T08:05:00.515Z,6.33
2017-06-20T08:07:28.050Z,6.50
2017-06-20T08:09:55.607Z,7.27
2017-06-20T08:12:23.136Z,6.80
2017-06-20T08:14:50.744Z,6.50
2017-06-20T08:17:19.123Z,7.30
2017-06-20T08:19:46.644Z,7.33
2017-06-20T08:22:14.203Z,7.50
2017-06-20T08:24:41.736Z,7.20
2017-06-20T08:27:10.072Z,6.47
2017-06-20T08:29:37.614Z,6.00
2017-06-20T08:32:05.173Z,6.67
2017-06-20T08:34:32.736Z,6.43
2017-06-20T08:37:05.861Z,6.80
2017-06-20T08:39:33.864Z,5.83
2017-06-20T08:42:01.437Z,6.80
2017-06-20T08:44:29.014Z,6.40
2017-06-20T08:46:56.583Z,7.23
2017-06-20T08:49:24.152Z,6.10
2017-06-20T08:51:51.688Z,6.70
2017-06-20T08:54:19.260Z,6.33
2017-06-20T08:56:46.832Z,6.63
2017-06-20T08:59:14.366Z,6.93
2017-06-20T09:01:41.907Z,6.80
2017-06-20T09:04:09.473Z,6.73
2017-06-20T09:06:37.064Z,6.10
2017-06-20T09:09:04.612Z,6.97
2017-06-20T09:11:32.192Z,5.73
2017-06-20T09:13:59.732Z,6.10
2017-06-20T09:16:27.284Z,6.10
2017-06-20T09:18:54.887Z,6.40
2017-06-20T09:21:22.480Z,6.43
2017-06-20T09:23:50.013Z,5.83
2017-06-20T09:26:17.560Z,5.77
2017-06-20T09:28:45.149Z,6.87
2017-06-20T09:31:12.668Z,6.10
2017-06-20T09:33:40.302Z,7.13
2017-06-20T09:36:07.860Z,7.03
2017-06-20T09:38:35.381Z,7.33
2017-06-20T09:41:02.914Z,6.70
2017-06-20T09:43:30.497Z,8.73
2017-06-20T09:45:58.285Z,6.40
2017-06-20T09:48:25.800Z,7.07
2017-06-20T09:50:53.408Z,6.37
2017-06-20T09:53:20.975Z,6.87
2017-06-20T09:55:49.299Z,6.90
2017-06-20T09:58:17.185Z,6.90
2017-06-20T10:00:44.751Z,7.10
2017-06-20T10:03:12.296Z,7.30
2017-06-20T10:05:39.948Z,7.80
2017-06-20T10:08:07.515Z,7.10
2017-06-20T10:10:35.040Z,7.67
2017-06-20T10:13:02.560Z,7.70
2017-06-20T10:15:30.128Z,7.30
2017-06-20T10:17:58.444Z,7.23
2017-06-20T10:20:25.961Z,7.53
2017-06-20T10:22:54.320Z,6.90
2017-06-20T10:25:21.892Z,7.90
2017-06-20T10:27:49.400Z,7.43
2017-06-20T10:30:16.971Z,7.97
2017-06-20T10:32:44.492Z,7.67
2017-06-20T10:35:12.952Z,7.30
2017-06-20T10:37:40.581Z,8.17
2017-06-20T10:40:08.112Z,8.17
2017-06-20T10:42:35.651Z,8.53
2017-06-20T10:45:03.255Z,8.80
2017-06-20T10:47:30.779Z,10.30
2017-06-20T10:49:58.295Z,9.57
2017-06-20T10:52:25.888Z,8.87
2017-06-20T10:54:54.151Z,10.20
2017-06-20T10:57:21.683Z,8.83
2017-06-20T10:59:49.275Z,8.57
2017-06-20T11:02:16.801Z,8.60
2017-06-20T11:04:44.320Z,8.17
2017-06-20T11:07:11.911Z,8.63
2017-06-20T11:09:39.439Z,8.20
2017-06-20T11:12:07.000Z,7.90
2017-06-20T11:14:34.590Z,8.90
2017-06-20T11:17:02.878Z,8.53
2017-06-20T11:19:31.165Z,8.40
2017-06-20T11:21:58.770Z,8.67
2017-06-20T11:24:26.299Z,9.17
2017-06-20T11:26:53.848Z,8.80
2017-06-20T11:29:21.408Z,8.80
2017-06-20T11:31:48.941Z,8.40
2017-06-20T11:34:17.241Z,8.30
2017-06-20T11:36:44.811Z,8.50
2017-06-20T11:39:12.328Z,8.23
2017-06-20T11:41:39.884Z,8.70
2017-06-20T11:44:07.456Z,9.50
2017-06-20T11:46:34.959Z,9.57
2017-06-20T11:49:02.525Z,8.83
2017-06-20T11:51:30.120Z,8.13
2017-06-20T11:53:57.676Z,8.77
2017-06-20T11:56:25.262Z,8.50
2017-06-20T11:58:52.829Z,9.03
2017-06-20T12:01:20.367Z,9.53
2017-06-20T12:03:47.984Z,8.70
2017-06-20T12:06:15.555Z,8.50
2017-06-20T12:08:43.100Z,8.87
2017-06-20T12:11:10.661Z,8.80
2017-06-20T12:13:38.250Z,7.83
2017-06-20T12:16:06.751Z,8.43
2017-06-20T12:18:34.276Z,8.50
2017-06-20T12:21:01.874Z,9.60
2017-06-20T12:23:29.425Z,9.60
2017-06-20T12:25:56.972Z,8.97
2017-06-20T12:28:24.552Z,8.07
2017-06-20T12:30:52.084Z,7.87
2017-06-20T12:33:19.646Z,8.03
2017-06-20T12:35:47.280Z,7.93
2017-06-20T12:38:15.560Z,8.00
2017-06-20T12:40:43.093Z,8.17
2017-06-20T12:43:10.696Z,8.10
2017-06-20T12:45:38.237Z,8.50
2017-06-20T12:48:05.782Z,8.50
2017-06-20T12:50:33.431Z,8.00
2017-06-20T12:53:00.946Z,8.90
2017-06-20T12:55:28.479Z,7.27
2017-06-20T12:57:56.938Z,6.53
2017-06-20T13:00:25.245Z,6.67
2017-06-20T13:02:52.773Z,8.10
2017-06-20T13:05:20.467Z,6.93
2017-06-20T13:07:47.999Z,7.33
2017-06-20T13:10:15.553Z,7.43
2017-06-20T13:12:43.123Z,8.07
2017-06-20T13:15:10.644Z,7.23
2017-06-20T13:17:38.262Z,6.80
2017-06-20T13:20:05.772Z,8.30
2017-06-20T13:22:33.336Z,7.83
2017-06-20T13:25:00.913Z,7.87
2017-06-20T13:27:29.201Z,7.93
2017-06-20T13:29:56.744Z,7.00
2017-06-20T13:32:24.337Z,7.60
2017-06-20T13:34:51.868Z,7.67
2017-06-20T13:37:19.404Z,7.80
2017-06-20T13:39:47.736Z,8.03
2017-06-20T13:42:15.248Z,7.00
2017-06-20T13:44:42.825Z,8.60
2017-06-20T13:47:10.391Z,7.00
2017-06-20T13:49:37.905Z,7.00
2017-06-20T13:52:06.190Z,6.70
2017-06-20T13:54:33.771Z,7.00
2017-06-20T13:57:01.284Z,7.10
2017-06-20T13:59:28.866Z,6.77
2017-06-20T14:01:56.441Z,9.43
2017-06-20T14:04:23.977Z,6.70
2017-06-20T14:06:52.295Z,6.90
2017-06-20T14:09:19.850Z,6.60
2017-06-20T14:11:47.379Z,5.80
2017-06-20T14:14:14.940Z,7.10
2017-06-20T14:16:42.508Z,6.90
2017-06-20T14:19:10.049Z,7.40
2017-06-20T14:21:37.602Z,8.50
2017-06-20T14:24:05.243Z,7.23
2017-06-20T14:26:32.772Z,7.17
2017-06-20T14:29:00.306Z,8.27
2017-06-20T14:31:28.041Z,8.20
2017-06-20T14:33:56.336Z,9.57
2017-06-20T14:36:23.940Z,9.40
2017-06-20T14:38:51.565Z,9.77
2017-06-20T14:41:19.085Z,9.40
2017-06-20T14:43:47.421Z,9.77
2017-06-20T14:46:14.992Z,9.00
2017-06-20T14:48:42.593Z,9.50
2017-06-20T14:51:10.124Z,9.10
2017-06-20T14:53:37.684Z,8.87
2017-06-20T14:56:05.223Z,8.20
2017-06-20T14:58:32.749Z,8.30
2017-06-20T15:01:00.311Z,8.97
2017-06-20T15:03:27.876Z,8.90
2017-06-20T15:05:55.473Z,9.07
2017-06-20T15:08:23.097Z,9.30
2017-06-20T15:10:50.629Z,9.20
2017-06-20T15:13:18.159Z,8.53
2017-06-20T15:15:46.585Z,9.70
2017-06-20T15:18:14.136Z,7.83
2017-06-20T15:20:41.673Z,9.13
2017-06-20T15:23:09.248Z,10.23
2017-06-20T15:25:36.778Z,9.23
2017-06-20T15:28:04.307Z,9.43
2017-06-20T15:30:32.043Z,8.37
2017-06-20T15:32:59.585Z,8.33
2017-06-20T15:35:27.105Z,8.20
2017-06-20T15:37:55.724Z,8.37
2017-06-20T15:40:23.490Z,8.23
2017-06-20T15:42:51.045Z,11.27
2017-06-20T15:45:18.607Z,8.93
2017-06-20T15:47:46.116Z,8.33
2017-06-20T15:50:14.440Z,9.00
2017-06-20T15:52:42.004Z,8.23
2017-06-20T15:55:09.538Z,7.57
2017-06-20T15:57:37.085Z,7.30
2017-06-20T16:00:04.645Z,8.20
2017-06-20T16:02:32.170Z,8.43
2017-06-20T16:04:59.699Z,8.20
2017-06-20T16:07:27.257Z,9.20
2017-06-20T16:09:54.773Z,8.77
2017-06-20T16:12:22.304Z,8.63
2017-06-20T16:14:49.864Z,7.50
2017-06-20T16:17:18.156Z,8.90
2017-06-20T16:19:46.454Z,8.00
2017-06-20T16:22:14.073Z,8.10
2017-06-20T16:24:42.396Z,7.70
2017-06-20T16:27:09.960Z,8.20
2017-06-20T16:29:37.542Z,8.30
2017-06-20T16:32:05.079Z,8.50
2017-06-20T16:34:32.600Z,8.87
2017-06-20T16:37:00.202Z,8.17
2017-06-20T16:39:27.763Z,8.57
2017-06-20T16:44:29.319Z,8.40
2017-06-20T16:46:56.844Z,8.10
2017-06-20T16:49:24.376Z,10.47
2017-06-20T16:51:51.932Z,8.40
2017-06-20T16:54:19.531Z,9.10
2017-06-20T16:56:47.077Z,9.80
2017-06-20T16:59:14.765Z,8.63
2017-06-20T17:01:42.283Z,8.47
2017-06-20T17:04:10.600Z,8.47
2017-06-20T17:06:38.181Z,8.77
2017-06-20T17:09:05.752Z,8.67
2017-06-20T17:11:34.204Z,9.30
2017-06-20T17:14:02.444Z,8.50
2017-06-20T17:16:30.004Z,9.00
2017-06-20T17:18:57.528Z,8.57
2017-06-20T17:21:25.119Z,9.40
2017-06-20T17:23:52.682Z,9.63
2017-06-20T17:26:20.208Z,9.93
2017-06-20T17:28:50.765Z,9.70
2017-06-20T17:31:18.293Z,9.57
2017-06-20T17:33:45.852Z,9.20
2017-06-20T17:36:14.243Z,8.70
2017-06-20T17:38:41.812Z,10.50
2017-06-20T17:41:10.070Z,10.30
2017-06-20T17:43:37.691Z,11.60
2017-06-20T17:46:05.208Z,11.10
2017-06-20T17:48:32.833Z,10.27
2017-06-20T17:51:01.223Z,10.20
2017-06-20T17:53:28.842Z,9.97
2017-06-20T17:55:56.365Z,10.67
2017-06-20T17:58:23.953Z,10.50
2017-06-20T18:00:51.553Z,9.70
2017-06-20T18:03:19.855Z,11.17
2017-06-20T18:05:47.537Z,10.63
2017-06-20T18:08:15.751Z,9.50
2017-06-20T18:10:43.311Z,11.43
2017-06-20T18:13:10.922Z,11.70
2017-06-20T18:15:38.475Z,11.80
2017-06-20T18:18:06.041Z,10.60
2017-06-20T18:20:33.608Z,9.83
2017-06-20T18:23:01.170Z,11.20
2017-06-20T18:25:28.704Z,10.43
2017-06-20T18:27:56.320Z,10.47
2017-06-20T18:30:23.883Z,11.40
2017-06-20T18:32:52.182Z,11.20
2017-06-20T18:35:19.763Z,11.13
2017-06-20T18:37:47.412Z,10.77
2017-06-20T18:40:15.477Z,11.50
2017-06-20T18:42:43.064Z,11.50
2017-06-20T18:45:10.604Z,11.43
2017-06-20T18:47:38.129Z,11.67
2017-06-20T18:50:05.749Z,11.47
2017-06-20T18:52:33.269Z,12.60
2017-06-20T18:55:01.567Z,11.70
2017-06-20T18:57:29.131Z,11.47
2017-06-20T18:59:56.692Z,13.87
2017-06-20T19:02:24.251Z,13.13
2017-06-20T19:04:51.868Z,11.73
2017-06-20T19:07:19.450Z,13.37
2017-06-20T19:09:46.968Z,13.10
2017-06-20T19:12:14.996Z,11.70
2017-06-20T19:14:42.544Z,11.20
2017-06-20T19:17:10.077Z,11.30
2017-06-20T19:19:37.719Z,12.00
2017-06-20T19:22:05.276Z,11.70
2017-06-20T19:24:33.769Z,12.67
2017-06-20T19:27:01.367Z,11.70
2017-06-20T19:29:28.917Z,11.70
2017-06-20T19:31:56.533Z,11.80
2017-06-20T19:34:24.130Z,12.67
2017-06-20T19:36:51.660Z,14.13
2017-06-20T19:39:19.192Z,13.33
2017-06-20T19:41:46.812Z,14.00
2017-06-20T19:44:14.445Z,13.90
2017-06-20T19:46:41.972Z,12.87
2017-06-20T19:49:09.612Z,13.53
2017-06-20T19:51:37.184Z,13.83
2017-06-20T19:54:04.703Z,13.23
2017-06-20T19:56:32.291Z,13.87
2017-06-20T19:59:00.600Z,14.00
2017-06-20T20:01:28.129Z,13.50
2017-06-20T20:03:55.695Z,13.33
2017-06-20T20:06:24.015Z,14.07
2017-06-20T20:08:51.562Z,14.27
2017-06-20T20:11:19.188Z,12.60
2017-06-20T20:13:47.484Z,13.00
2017-06-20T20:16:15.090Z,13.00
2017-06-20T20:18:42.676Z,13.07
2017-06-20T20:21:10.207Z,11.90
2017-06-20T20:23:37.756Z,13.83
2017-06-20T20:26:05.340Z,14.90
2017-06-20T20:28:32.894Z,13.47
2017-06-20T20:31:01.225Z,14.07
2017-06-20T20:33:28.812Z,13.27
2017-06-20T20:35:56.349Z,14.10
2017-06-20T20:38:25.924Z,13.20
2017-06-20T20:40:53.600Z,12.80
2017-06-20T20:43:21.132Z,13.07
2017-06-20T20:45:49.464Z,14.37
2017-06-20T20:48:17.059Z,13.60
2017-06-20T20:50:45.382Z,13.50
2017-06-20T20:53:12.936Z,12.90
2017-06-20T20:55:40.508Z,13.13
2017-06-20T20:58:08.071Z,13.93
2017-06-20T21:00:35.741Z,14.83
2017-06-20T21:03:03.328Z,13.87
2017-06-20T21:05:30.864Z,13.30
2017-06-20T21:07:58.584Z,13.40
2017-06-20T21:10:26.251Z,13.90
2017-06-20T21:12:53.784Z,13.80
2017-06-20T21:15:21.312Z,12.50
2017-06-20T21:17:48.885Z,13.17
2017-06-20T21:20:17.212Z,14.80
2017-06-20T21:22:44.744Z,12.53
2017-06-20T21:25:12.325Z,12.93
2017-06-20T21:27:40.472Z,12.50
2017-06-20T21:30:08.047Z,12.60
2017-06-20T21:32:35.623Z,12.33
2017-06-20T21:35:03.148Z,13.33
2017-06-20T21:37:30.711Z,13.70
2017-06-20T21:39:58.296Z,12.90
2017-06-20T21:42:25.815Z,13.17
2017-06-20T21:44:53.344Z,13.47
2017-06-20T21:47:20.920Z,13.33
2017-06-20T21:49:49.312Z,13.30
2017-06-20T21:52:16.843Z,14.47
2017-06-20T21:54:44.441Z,13.80
2017-06-20T21:57:11.970Z,14.80
2017-06-20T21:59:39.505Z,13.00
2017-06-20T22:02:07.103Z,14.80
2017-06-20T22:04:34.656Z,14.03
2017-06-20T22:07:02.197Z,13.77
2017-06-20T22:09:30.568Z,13.47
2017-06-20T22:11:58.096Z,14.13
2017-06-20T22:14:25.632Z,13.50
2017-06-20T22:16:53.221Z,13.57
2017-06-20T22:19:20.760Z,13.60
2017-06-20T22:21:48.276Z,15.10
2017-06-20T22:24:15.901Z,12.90
2017-06-20T22:26:43.450Z,13.70
2017-06-20T22:29:10.986Z,13.50
2017-06-20T22:31:38.551Z,14.87
2017-06-20T22:34:06.127Z,14.40
2017-06-20T22:36:33.683Z,13.30
2017-06-20T22:39:01.252Z,13.83
2017-06-20T22:41:28.795Z,14.33
2017-06-20T22:43:56.332Z,14.70
2017-06-20T22:46:23.940Z,14.50
2017-06-20T22:48:51.455Z,14.23
2017-06-20T22:51:18.999Z,14.80
2017-06-20T22:53:46.571Z,14.20
2017-06-20T22:56:14.107Z,15.17
2017-06-20T22:58:41.648Z,14.60
2017-06-20T23:01:09.236Z,15.43
2017-06-20T23:03:36.777Z,14.63
2017-06-20T23:06:04.301Z,14.57
2017-06-20T23:08:33.121Z,15.50
2017-06-20T23:11:00.640Z,15.10
2017-06-20T23:13:28.176Z,15.70
2017-06-20T23:15:55.799Z,15.50
2017-06-20T23:18:23.319Z,15.90
2017-06-20T23:20:51.629Z,17.00
2017-06-20T23:23:19.224Z,15.43
2017-06-20T23:25:46.761Z,15.33
2017-06-20T23:28:14.291Z,16.40
2017-06-20T23:30:41.868Z,15.13
2017-06-20T23:33:09.387Z,16.00
2017-06-20T23:35:36.928Z,16.50
2017-06-20T23:38:04.520Z,16.80
2017-06-20T23:40:32.040Z,14.67
2017-06-20T23:42:59.560Z,18.17
2017-06-20T23:45:27.171Z,16.10
2017-06-20T23:47:54.697Z,15.30
2017-06-20T23:50:22.212Z,16.43
2017-06-20T23:52:49.815Z,16.43
2017-06-20T23:55:17.337Z,16.30
2017-06-20T23:57:44.860Z,16.80
